createdAt,value
2022-08-17T00:04:22.736Z,97085.25
2022-08-17T00:09:26.211Z,97081.09
2022-08-17T00:14:30.660Z,97080.63
2022-08-17T00:19:34.806Z,97081.56
2022-08-17T00:24:41.729Z,97081.75
2022-08-17T00:29:46.834Z,97082.69
2022-08-17T00:34:50.964Z,97078.41
2022-08-17T00:39:55.240Z,97087.72
2022-08-17T00:44:59.607Z,97089.97
2022-08-17T00:50:07.035Z,97085.81
2022-08-17T00:55:11.179Z,97084.34
2022-08-17T01:00:21.123Z,97082.25
2022-08-17T01:05:33.141Z,97090.41
2022-08-17T01:10:58.921Z,97090.72
2022-08-17T01:16:27.922Z,97093.63
2022-08-17T01:21:52.795Z,97091.34
2022-08-17T01:26:57.662Z,97085.84
2022-08-17T01:32:04.466Z,97082.19
2022-08-17T01:37:08.975Z,97076.53
2022-08-17T01:42:24.811Z,97073.63
2022-08-17T01:47:30.457Z,97059.97
2022-08-17T01:52:35.435Z,97066.22
2022-08-17T01:57:38.712Z,97053.72
2022-08-17T02:02:42.604Z,97055.97
2022-08-17T02:07:59.966Z,97041.50
2022-08-17T02:13:05.329Z,97029.59
2022-08-17T02:18:10.844Z,97019.50
2022-08-17T02:23:14.264Z,97010.97
2022-08-17T02:28:18.286Z,97019.81
2022-08-17T02:33:22.776Z,97028.06
2022-08-17T02:38:26.790Z,97039.78
2022-08-17T02:43:30.473Z,97038.81
2022-08-17T02:48:34.082Z,97034.16
2022-08-17T02:53:44.488Z,97035.44
2022-08-17T02:58:47.972Z,97040.44
2022-08-17T03:03:51.527Z,97043.78
2022-08-17T03:08:55.086Z,97044.44
2022-08-17T03:13:58.500Z,97046.38
2022-08-17T03:19:02.003Z,97054.38
2022-08-17T03:24:08.689Z,97054.22
2022-08-17T03:29:12.428Z,97061.16
2022-08-17T03:34:16.949Z,97057.13
2022-08-17T03:39:21.125Z,97049.13
2022-08-17T03:44:24.745Z,97062.31
2022-08-17T03:49:28.849Z,97049.44
2022-08-17T03:54:32.752Z,97058.59
2022-08-17T03:59:36.308Z,97055.06
2022-08-17T04:04:40.504Z,97060.22
2022-08-17T04:09:43.984Z,97064.94
2022-08-17T04:14:52.585Z,97065.56
2022-08-17T04:19:57.783Z,97061.34
2022-08-17T04:25:15.104Z,97071.66
2022-08-17T04:30:18.819Z,97068.91
2022-08-17T04:35:27.560Z,97069.22
2022-08-17T04:40:31.626Z,97074.56
2022-08-17T04:45:40.001Z,97066.03
2022-08-17T04:50:48.926Z,97078.88
2022-08-17T04:55:53.577Z,97070.69
2022-08-17T05:00:57.209Z,97077.22
2022-08-17T05:06:01.071Z,97078.06
2022-08-17T05:11:04.772Z,97067.56
2022-08-17T05:16:08.706Z,97080.63
2022-08-17T05:21:11.950Z,97075.03
2022-08-17T05:26:26.516Z,97071.50
2022-08-17T05:31:31.796Z,97068.16
2022-08-17T05:36:42.048Z,97081.75
2022-08-17T05:41:49.550Z,97076.63
2022-08-17T05:46:53.973Z,97081.00
2022-08-17T05:52:26.960Z,97082.84
2022-08-17T05:57:47.456Z,97074.50
2022-08-17T06:03:01.268Z,97086.56
2022-08-17T06:08:24.196Z,97074.50
2022-08-17T06:14:05.059Z,97073.25
2022-08-17T06:19:25.542Z,97078.03
2022-08-17T06:24:44.054Z,97076.13
2022-08-17T06:29:58.100Z,97078.47
2022-08-17T06:35:03.276Z,97084.06
2022-08-17T06:40:37.809Z,97072.81
2022-08-17T06:45:57.813Z,97064.25
2022-08-17T06:51:16.450Z,97071.53
2022-08-17T06:56:54.060Z,97070.16
2022-08-17T07:01:55.664Z,97079.94
2022-08-17T07:07:10.999Z,97068.38
2022-08-17T07:12:23.232Z,97059.78
2022-08-17T07:17:46.487Z,97060.31
2022-08-17T07:23:19.661Z,97064.69
2022-08-17T07:28:23.973Z,97064.78
2022-08-17T07:33:32.697Z,97059.03
2022-08-17T07:38:56.774Z,97050.22
2022-08-17T07:44:00.140Z,97056.50
2022-08-17T07:49:03.809Z,97036.19
2022-08-17T07:54:16.583Z,97037.72
2022-08-17T07:59:38.093Z,97033.84
2022-08-17T08:05:00.656Z,97028.88
2022-08-17T08:10:16.651Z,97028.13
2022-08-17T08:15:33.166Z,97026.44
2022-08-17T08:20:52.904Z,97016.13
2022-08-17T08:26:22.011Z,97027.22
2022-08-17T08:32:05.322Z,97012.81
2022-08-17T08:37:34.556Z,97014.47
2022-08-17T08:43:05.225Z,97006.28
2022-08-17T08:48:56.346Z,97010.59
2022-08-17T08:54:39.590Z,97010.78
2022-08-17T09:00:12.106Z,97010.78
2022-08-17T09:05:37.329Z,97000.84
2022-08-17T09:10:44.178Z,96995.44
2022-08-17T09:16:13.646Z,96989.22
2022-08-17T09:21:36.278Z,96991.47
2022-08-17T09:26:58.116Z,97007.81
2022-08-17T09:32:09.670Z,96989.00
2022-08-17T09:37:23.468Z,96990.44
2022-08-17T09:42:58.972Z,97001.34
2022-08-17T09:48:22.147Z,96990.06
2022-08-17T09:53:26.445Z,96990.72
2022-08-17T09:59:03.626Z,96986.94
2022-08-17T10:04:44.469Z,96989.09
2022-08-17T10:10:19.736Z,96980.97
2022-08-17T10:15:42.740Z,96988.44
2022-08-17T10:20:57.510Z,96987.06
2022-08-17T10:26:18.852Z,96979.50
2022-08-17T10:31:34.745Z,96985.63
2022-08-17T10:36:50.641Z,96983.16
2022-08-17T10:41:58.170Z,96979.97
2022-08-17T10:47:11.737Z,96984.22
2022-08-17T10:52:25.266Z,96980.59
2022-08-17T10:57:40.241Z,96974.56
2022-08-17T11:02:51.345Z,96967.72
2022-08-17T11:08:13.511Z,96973.72
2022-08-17T11:14:02.121Z,96966.47
2022-08-17T11:19:54.887Z,96963.53
2022-08-17T11:25:13.431Z,96966.56
2022-08-17T11:30:56.722Z,96968.22
2022-08-17T11:36:39.864Z,96956.25
2022-08-17T11:42:03.256Z,96948.16
2022-08-17T11:47:12.756Z,96947.38
2022-08-17T11:52:37.728Z,96942.78
2022-08-17T11:57:41.856Z,96929.81
2022-08-17T12:02:48.496Z,96933.72
2022-08-17T12:08:07.024Z,96936.38
2022-08-17T12:13:15.744Z,96934.34
2022-08-17T12:18:28.394Z,96932.63
2022-08-17T12:24:07.244Z,96930.84
2022-08-17T12:29:17.855Z,96927.00
2022-08-17T12:34:44.039Z,96932.88
2022-08-17T12:40:06.854Z,96931.59
2022-08-17T12:45:27.097Z,96925.50
2022-08-17T12:50:31.010Z,96921.31
2022-08-17T12:55:37.092Z,96927.88
2022-08-17T13:00:47.301Z,96928.47
2022-08-17T13:52:42.833Z,96919.56
2022-08-17T13:57:50.579Z,96920.28
2022-08-17T14:03:10.192Z,96914.59
2022-08-17T14:08:15.929Z,96913.34
2022-08-17T14:13:20.065Z,96921.44
2022-08-17T14:18:35.517Z,96916.75
2022-08-17T14:23:49.053Z,96919.50
2022-08-17T14:28:58.276Z,96924.63
2022-08-17T14:34:05.828Z,96916.97
2022-08-17T14:39:11.127Z,96917.22
2022-08-17T14:44:16.579Z,96917.56
2022-08-17T14:49:20.117Z,96928.06
2022-08-17T14:54:32.606Z,96919.63
2022-08-17T14:59:37.887Z,96917.41
2022-08-17T15:04:45.503Z,96917.97
2022-08-17T15:09:49.341Z,96910.75
2022-08-17T15:14:52.886Z,96917.94
2022-08-17T15:19:56.454Z,96909.94
2022-08-17T15:25:05.459Z,96916.41
2022-08-17T15:30:10.460Z,96899.94
2022-08-17T15:35:14.626Z,96916.31
2022-08-17T15:40:18.341Z,96909.00
2022-08-17T15:45:24.509Z,96916.75
2022-08-17T15:50:28.124Z,96922.44
2022-08-17T15:55:33.269Z,96917.03
2022-08-17T16:00:53.548Z,96927.25
2022-08-17T16:05:59.982Z,96923.78
2022-08-17T16:11:04.317Z,96919.84
2022-08-17T16:16:09.071Z,96919.59
2022-08-17T16:21:16.285Z,96923.97
2022-08-17T16:26:19.843Z,96919.31
2022-08-17T16:31:24.527Z,96932.09
2022-08-17T16:36:28.149Z,96926.00
2022-08-17T16:41:31.932Z,96928.59
2022-08-17T16:46:35.521Z,96929.91
2022-08-17T16:51:40.497Z,96930.44
2022-08-17T16:56:43.968Z,96935.28
2022-08-17T17:01:47.690Z,96931.47
2022-08-17T17:07:31.795Z,96933.91
2022-08-17T17:13:02.209Z,96945.69
2022-08-17T17:18:06.930Z,96942.94
2022-08-17T17:23:43.166Z,96946.47
2022-08-17T17:29:10.998Z,96951.94
2022-08-17T17:34:16.268Z,96953.09
2022-08-17T17:39:26.550Z,96956.78
2022-08-17T17:44:38.374Z,96962.59
2022-08-17T17:49:46.793Z,96966.28
2022-08-17T17:54:56.308Z,96956.66
2022-08-17T17:59:59.604Z,96959.56
2022-08-17T18:05:23.235Z,96976.63
2022-08-17T18:10:42.000Z,96976.94
2022-08-17T18:15:48.636Z,96979.53
2022-08-17T18:20:55.889Z,96989.50
2022-08-17T18:26:00.636Z,96986.44
2022-08-17T18:31:16.642Z,96987.09
2022-08-17T18:36:30.146Z,96977.63
2022-08-17T18:41:41.668Z,96971.19
2022-08-17T18:46:45.270Z,96958.84
2022-08-17T18:51:48.774Z,96960.59
2022-08-17T18:56:55.351Z,96964.31
2022-08-17T19:02:33.664Z,96955.50
2022-08-17T19:07:47.258Z,96958.06
2022-08-17T19:12:50.662Z,96958.97
2022-08-17T19:18:15.530Z,96953.38
2022-08-17T19:23:36.208Z,96957.53
2022-08-17T19:28:49.726Z,96947.59
2022-08-17T19:33:54.490Z,96959.50
2022-08-17T19:38:58.958Z,96950.00
2022-08-17T19:44:18.581Z,96950.19
2022-08-17T19:49:40.873Z,96946.16
2022-08-17T19:54:54.049Z,96943.28
2022-08-17T20:00:05.588Z,96940.84
2022-08-17T20:05:17.005Z,96943.56
2022-08-17T20:10:34.207Z,96946.63
2022-08-17T20:15:41.482Z,96951.47
2022-08-17T20:21:10.395Z,96949.03
2022-08-17T20:26:34.826Z,96953.56
2022-08-17T20:31:49.289Z,96956.91
2022-08-17T20:37:03.062Z,96941.50
2022-08-17T20:42:11.963Z,96944.53
2022-08-17T20:47:32.142Z,96946.97
2022-08-17T20:52:47.978Z,96952.72
2022-08-17T20:57:51.645Z,96948.72
2022-08-17T21:03:19.951Z,96938.59
2022-08-17T21:08:45.870Z,96931.41
2022-08-17T21:14:13.602Z,96928.81
2022-08-17T21:20:00.489Z,96931.53
2022-08-17T21:25:42.857Z,96926.41
2022-08-17T21:30:59.019Z,96934.41
2022-08-17T21:36:12.270Z,96918.38
2022-08-17T21:41:32.656Z,96924.16
2022-08-17T21:46:40.528Z,96917.44
2022-08-17T21:51:53.812Z,96920.63
2022-08-17T21:57:00.030Z,96913.56
2022-08-17T22:02:05.908Z,96912.28
2022-08-17T22:07:12.409Z,96900.22
2022-08-17T22:12:19.308Z,96896.84
2022-08-17T22:17:36.627Z,96894.56
2022-08-17T22:22:46.508Z,96886.88
2022-08-17T22:27:52.594Z,96884.63
2022-08-17T22:32:57.061Z,96881.56
2022-08-17T22:38:18.749Z,96884.09
2022-08-17T22:43:26.667Z,96874.66
2022-08-17T22:48:30.275Z,96873.84
2022-08-17T22:53:35.856Z,96875.28
2022-08-17T22:58:58.712Z,96872.22
2022-08-17T23:04:06.752Z,96867.22
2022-08-17T23:09:09.954Z,96872.03
2022-08-17T23:14:14.267Z,96878.44
2022-08-17T23:19:20.892Z,96878.44
2022-08-17T23:24:32.366Z,96878.75
2022-08-17T23:29:36.334Z,96879.72
2022-08-17T23:34:41.189Z,96873.75
2022-08-17T23:39:45.840Z,96877.44
2022-08-17T23:44:49.187Z,96878.38
2022-08-17T23:49:54.223Z,96873.84
2022-08-17T23:55:01.161Z,96879.94
